sensor_id;sensor_type;location;lat;lon;timestamp;P1;durP1;ratioP1;P2;durP2;ratioP2
34242;SDS011;20504;43.214;27.920;2023-06-24T07:30:58;8.73;;;7.82;;
34242;SDS011;20504;43.214;27.920;2023-06-24T07:58:41;10.05;;;7.80;;
34242;SDS011;20504;43.214;27.920;2023-06-24T09:30:43;12.48;;;8.02;;
34242;SDS011;20504;43.214;27.920;2023-06-24T09:33:12;8.23;;;6.78;;
34242;SDS011;20504;43.214;27.920;2023-06-24T09:36:32;8.55;;;6.22;;
34242;SDS011;20504;43.214;27.920;2023-06-24T09:41:35;15.60;;;6.72;;
34242;SDS011;20504;43.214;27.920;2023-06-24T09:44:37;7.88;;;6.15;;
34242;SDS011;20504;43.214;27.920;2023-06-24T09:47:04;8.97;;;6.47;;
34242;SDS011;20504;43.214;27.920;2023-06-24T09:49:53;7.00;;;6.30;;
34242;SDS011;20504;43.214;27.920;2023-06-24T09:52:24;7.85;;;6.38;;
34242;SDS011;20504;43.214;27.920;2023-06-24T09:54:54;7.75;;;6.18;;
34242;SDS011;20504;43.214;27.920;2023-06-24T09:57:37;11.35;;;6.45;;
34242;SDS011;20504;43.214;27.920;2023-06-24T10:00:11;8.02;;;6.45;;
34242;SDS011;20504;43.214;27.920;2023-06-24T10:02:48;9.15;;;6.68;;
34242;SDS011;20504;43.214;27.920;2023-06-24T10:05:20;9.77;;;6.45;;
34242;SDS011;20504;43.214;27.920;2023-06-24T10:26:35;8.90;;;6.35;;
34242;SDS011;20504;43.214;27.920;2023-06-24T10:29:46;9.50;;;7.10;;
34242;SDS011;20504;43.214;27.920;2023-06-24T10:39:44;9.43;;;6.90;;
34242;SDS011;20504;43.214;27.920;2023-06-24T10:42:52;8.13;;;6.80;;
34242;SDS011;20504;43.214;27.920;2023-06-24T10:45:19;9.32;;;6.47;;
34242;SDS011;20504;43.214;27.920;2023-06-24T10:48:01;9.40;;;6.70;;
34242;SDS011;20504;43.214;27.920;2023-06-24T10:50:44;11.23;;;7.13;;
34242;SDS011;20504;43.214;27.920;2023-06-24T10:53:42;6.95;;;6.15;;
34242;SDS011;20504;43.214;27.920;2023-06-24T10:56:19;8.77;;;6.95;;
34242;SDS011;20504;43.214;27.920;2023-06-24T10:58:56;8.88;;;6.63;;
34242;SDS011;20504;43.214;27.920;2023-06-24T11:01:57;9.00;;;6.78;;
34242;SDS011;20504;43.214;27.920;2023-06-24T11:04:32;9.18;;;6.75;;
34242;SDS011;20504;43.214;27.920;2023-06-24T11:07:32;9.05;;;6.15;;
34242;SDS011;20504;43.214;27.920;2023-06-24T11:10:32;9.23;;;6.63;;
34242;SDS011;20504;43.214;27.920;2023-06-24T11:13:06;7.50;;;6.07;;
34242;SDS011;20504;43.214;27.920;2023-06-24T11:15:39;13.15;;;7.57;;
34242;SDS011;20504;43.214;27.920;2023-06-24T11:18:41;8.48;;;6.43;;
34242;SDS011;20504;43.214;27.920;2023-06-24T11:21:13;8.27;;;5.85;;
34242;SDS011;20504;43.214;27.920;2023-06-24T11:24:23;8.98;;;6.80;;
34242;SDS011;20504;43.214;27.920;2023-06-24T11:27:32;6.38;;;5.75;;
34242;SDS011;20504;43.214;27.920;2023-06-24T11:30:41;9.30;;;5.80;;
34242;SDS011;20504;43.214;27.920;2023-06-24T11:33:30;9.13;;;6.10;;
34242;SDS011;20504;43.214;27.920;2023-06-24T11:36:11;8.02;;;6.28;;
34242;SDS011;20504;43.214;27.920;2023-06-24T11:38:57;7.45;;;5.47;;
34242;SDS011;20504;43.214;27.920;2023-06-24T11:41:32;8.95;;;5.95;;
34242;SDS011;20504;43.214;27.920;2023-06-24T11:44:12;6.57;;;5.50;;
34242;SDS011;20504;43.214;27.920;2023-06-24T11:53:05;9.10;;;6.80;;
34242;SDS011;20504;43.214;27.920;2023-06-24T11:56:40;7.35;;;5.32;;
34242;SDS011;20504;43.214;27.920;2023-06-24T12:01:45;10.13;;;5.25;;
34242;SDS011;20504;43.214;27.920;2023-06-24T12:05:19;6.97;;;5.85;;
34242;SDS011;20504;43.214;27.920;2023-06-24T12:08:30;7.07;;;4.65;;
34242;SDS011;20504;43.214;27.920;2023-06-24T12:14:05;7.13;;;5.57;;
34242;SDS011;20504;43.214;27.920;2023-06-24T12:16:44;9.85;;;5.90;;
34242;SDS011;20504;43.214;27.920;2023-06-24T12:19:44;7.85;;;5.43;;
34242;SDS011;20504;43.214;27.920;2023-06-24T12:22:16;6.50;;;5.43;;
34242;SDS011;20504;43.214;27.920;2023-06-24T12:24:46;6.32;;;5.10;;
34242;SDS011;20504;43.214;27.920;2023-06-24T12:27:13;6.95;;;5.30;;
34242;SDS011;20504;43.214;27.920;2023-06-24T12:29:38;9.00;;;5.22;;
34242;SDS011;20504;43.214;27.920;2023-06-24T12:32:12;7.13;;;5.00;;
34242;SDS011;20504;43.214;27.920;2023-06-24T12:34:46;6.03;;;5.28;;
34242;SDS011;20504;43.214;27.920;2023-06-24T12:37:11;6.97;;;5.15;;
34242;SDS011;20504;43.214;27.920;2023-06-24T12:39:53;8.48;;;4.88;;
34242;SDS011;20504;43.214;27.920;2023-06-24T12:42:19;8.32;;;6.68;;
34242;SDS011;20504;43.214;27.920;2023-06-24T12:45:14;8.57;;;5.05;;
34242;SDS011;20504;43.214;27.920;2023-06-24T12:47:55;7.88;;;4.85;;
34242;SDS011;20504;43.214;27.920;2023-06-24T12:50:45;5.93;;;4.90;;
34242;SDS011;20504;43.214;27.920;2023-06-24T12:53:12;6.97;;;4.63;;
34242;SDS011;20504;43.214;27.920;2023-06-24T12:55:55;7.32;;;4.82;;
34242;SDS011;20504;43.214;27.920;2023-06-24T12:58:22;7.07;;;5.20;;
34242;SDS011;20504;43.214;27.920;2023-06-24T13:00:52;6.25;;;4.80;;
34242;SDS011;20504;43.214;27.920;2023-06-24T13:03:18;6.32;;;4.85;;
34242;SDS011;20504;43.214;27.920;2023-06-24T13:06:04;6.10;;;4.55;;
34242;SDS011;20504;43.214;27.920;2023-06-24T13:08:30;6.30;;;5.05;;
34242;SDS011;20504;43.214;27.920;2023-06-24T13:11:18;13.00;;;5.30;;
34242;SDS011;20504;43.214;27.920;2023-06-24T13:13:52;6.13;;;4.93;;
34242;SDS011;20504;43.214;27.920;2023-06-24T13:16:17;6.32;;;4.97;;
34242;SDS011;20504;43.214;27.920;2023-06-24T13:18:43;6.03;;;4.47;;
34242;SDS011;20504;43.214;27.920;2023-06-24T13:21:09;6.55;;;5.00;;
34242;SDS011;20504;43.214;27.920;2023-06-24T13:23:35;5.90;;;5.10;;
34242;SDS011;20504;43.214;27.920;2023-06-24T13:26:03;8.85;;;5.30;;
34242;SDS011;20504;43.214;27.920;2023-06-24T13:28:29;6.45;;;5.00;;
34242;SDS011;20504;43.214;27.920;2023-06-24T13:30:58;5.82;;;5.22;;
34242;SDS011;20504;43.214;27.920;2023-06-24T13:33:24;6.15;;;4.78;;
34242;SDS011;20504;43.214;27.920;2023-06-24T13:39:50;9.35;;;4.93;;
34242;SDS011;20504;43.214;27.920;2023-06-24T13:42:22;5.90;;;4.43;;
34242;SDS011;20504;43.214;27.920;2023-06-24T13:45:10;7.75;;;4.75;;
34242;SDS011;20504;43.214;27.920;2023-06-24T13:47:36;5.57;;;4.97;;
34242;SDS011;20504;43.214;27.920;2023-06-24T13:50:02;5.30;;;4.72;;
34242;SDS011;20504;43.214;27.920;2023-06-24T13:52:29;8.18;;;4.78;;
34242;SDS011;20504;43.214;27.920;2023-06-24T13:54:54;8.18;;;4.97;;
34242;SDS011;20504;43.214;27.920;2023-06-24T13:57:20;5.07;;;4.57;;
34242;SDS011;20504;43.214;27.920;2023-06-24T13:59:45;6.35;;;4.85;;
34242;SDS011;20504;43.214;27.920;2023-06-24T14:02:14;6.20;;;5.10;;
34242;SDS011;20504;43.214;27.920;2023-06-24T14:07:43;8.35;;;4.97;;
34242;SDS011;20504;43.214;27.920;2023-06-24T14:10:09;11.38;;;4.78;;
34242;SDS011;20504;43.214;27.920;2023-06-24T14:12:34;6.28;;;5.00;;
34242;SDS011;20504;43.214;27.920;2023-06-24T14:15:20;8.52;;;4.82;;
34242;SDS011;20504;43.214;27.920;2023-06-24T14:17:55;8.05;;;4.63;;
34242;SDS011;20504;43.214;27.920;2023-06-24T14:20:21;10.25;;;4.75;;
34242;SDS011;20504;43.214;27.920;2023-06-24T14:22:47;7.50;;;5.30;;
34242;SDS011;20504;43.214;27.920;2023-06-24T14:28:12;6.28;;;4.88;;
34242;SDS011;20504;43.214;27.920;2023-06-24T14:30:47;5.90;;;4.47;;
34242;SDS011;20504;43.214;27.920;2023-06-24T14:33:12;9.02;;;5.07;;
34242;SDS011;20504;43.214;27.920;2023-06-24T14:35:44;11.27;;;5.00;;
34242;SDS011;20504;43.214;27.920;2023-06-24T14:38:09;9.95;;;4.90;;
34242;SDS011;20504;43.214;27.920;2023-06-24T14:40:35;11.65;;;5.47;;
34242;SDS011;20504;43.214;27.920;2023-06-24T14:43:00;7.32;;;4.63;;
34242;SDS011;20504;43.214;27.920;2023-06-24T14:45:26;7.90;;;6.47;;
34242;SDS011;20504;43.214;27.920;2023-06-24T14:47:52;6.32;;;5.43;;
34242;SDS011;20504;43.214;27.920;2023-06-24T14:50:18;8.77;;;5.03;;
34242;SDS011;20504;43.214;27.920;2023-06-24T14:52:43;6.18;;;4.40;;
34242;SDS011;20504;43.214;27.920;2023-06-24T14:55:09;5.70;;;4.95;;
34242;SDS011;20504;43.214;27.920;2023-06-24T14:57:35;5.93;;;5.07;;
34242;SDS011;20504;43.214;27.920;2023-06-24T15:00:01;8.18;;;5.28;;
34242;SDS011;20504;43.214;27.920;2023-06-24T15:02:28;8.05;;;4.82;;
34242;SDS011;20504;43.214;27.920;2023-06-24T15:08:15;9.48;;;5.47;;
34242;SDS011;20504;43.214;27.920;2023-06-24T15:10:41;8.07;;;4.57;;
34242;SDS011;20504;43.214;27.920;2023-06-24T15:13:06;9.02;;;4.75;;
34242;SDS011;20504;43.214;27.920;2023-06-24T15:15:32;10.45;;;5.47;;
34242;SDS011;20504;43.214;27.920;2023-06-24T15:17:58;9.02;;;4.45;;
34242;SDS011;20504;43.214;27.920;2023-06-24T15:20:25;7.40;;;5.30;;
34242;SDS011;20504;43.214;27.920;2023-06-24T15:22:50;5.53;;;4.45;;
34242;SDS011;20504;43.214;27.920;2023-06-24T15:25:16;8.15;;;4.93;;
34242;SDS011;20504;43.214;27.920;2023-06-24T15:27:41;5.60;;;4.95;;
34242;SDS011;20504;43.214;27.920;2023-06-24T15:30:07;7.70;;;5.00;;
34242;SDS011;20504;43.214;27.920;2023-06-24T15:32:32;7.40;;;4.85;;
34242;SDS011;20504;43.214;27.920;2023-06-24T15:34:58;5.20;;;4.70;;
34242;SDS011;20504;43.214;27.920;2023-06-24T15:37:28;5.90;;;5.15;;
34242;SDS011;20504;43.214;27.920;2023-06-24T15:42:26;7.40;;;5.90;;
34242;SDS011;20504;43.214;27.920;2023-06-24T15:45:02;11.18;;;6.57;;
34242;SDS011;20504;43.214;27.920;2023-06-24T15:47:46;8.43;;;4.75;;
34242;SDS011;20504;43.214;27.920;2023-06-24T15:50:45;9.30;;;5.47;;
34242;SDS011;20504;43.214;27.920;2023-06-24T15:53:18;6.70;;;5.38;;
34242;SDS011;20504;43.214;27.920;2023-06-24T15:55:49;6.72;;;5.65;;
34242;SDS011;20504;43.214;27.920;2023-06-24T15:58:15;7.18;;;5.13;;
34242;SDS011;20504;43.214;27.920;2023-06-24T16:01:03;6.50;;;5.63;;
34242;SDS011;20504;43.214;27.920;2023-06-24T16:03:45;7.13;;;6.20;;
34242;SDS011;20504;43.214;27.920;2023-06-24T16:06:46;9.27;;;6.55;;
34242;SDS011;20504;43.214;27.920;2023-06-24T16:11:45;6.28;;;5.68;;
34242;SDS011;20504;43.214;27.920;2023-06-24T16:14:16;12.98;;;7.28;;
34242;SDS011;20504;43.214;27.920;2023-06-24T16:17:07;14.02;;;5.90;;
34242;SDS011;20504;43.214;27.920;2023-06-24T16:19:33;9.98;;;6.32;;
34242;SDS011;20504;43.214;27.920;2023-06-24T16:27:09;15.27;;;9.90;;
34242;SDS011;20504;43.214;27.920;2023-06-24T16:30:16;10.02;;;7.32;;
34242;SDS011;20504;43.214;27.920;2023-06-24T16:32:50;20.25;;;8.57;;
34242;SDS011;20504;43.214;27.920;2023-06-24T16:41:28;8.52;;;6.82;;
34242;SDS011;20504;43.214;27.920;2023-06-24T16:44:29;7.68;;;6.85;;
34242;SDS011;20504;43.214;27.920;2023-06-24T16:47:37;17.05;;;7.65;;
34242;SDS011;20504;43.214;27.920;2023-06-24T16:50:11;10.80;;;7.18;;
34242;SDS011;20504;43.214;27.920;2023-06-24T16:53:26;7.40;;;6.65;;
34242;SDS011;20504;43.214;27.920;2023-06-24T16:56:21;10.50;;;6.78;;
34242;SDS011;20504;43.214;27.920;2023-06-24T16:58:55;12.75;;;7.75;;
34242;SDS011;20504;43.214;27.920;2023-06-24T17:02:05;10.98;;;7.25;;
34242;SDS011;20504;43.214;27.920;2023-06-24T17:04:53;8.52;;;7.50;;
34242;SDS011;20504;43.214;27.920;2023-06-24T17:08:34;12.80;;;8.25;;
34242;SDS011;20504;43.214;27.920;2023-06-24T17:11:27;11.07;;;7.45;;
34242;SDS011;20504;43.214;27.920;2023-06-24T17:16:50;16.08;;;8.50;;
34242;SDS011;20504;43.214;27.920;2023-06-24T17:22:24;14.15;;;8.10;;
34242;SDS011;20504;43.214;27.920;2023-06-24T17:24:50;11.32;;;7.35;;
34242;SDS011;20504;43.214;27.920;2023-06-24T17:29:54;10.50;;;7.88;;
34242;SDS011;20504;43.214;27.920;2023-06-24T17:32:21;11.00;;;8.32;;
34242;SDS011;20504;43.214;27.920;2023-06-24T17:34:48;9.95;;;7.70;;
34242;SDS011;20504;43.214;27.920;2023-06-24T17:37:18;9.68;;;7.72;;
34242;SDS011;20504;43.214;27.920;2023-06-24T17:39:44;11.95;;;7.63;;
34242;SDS011;20504;43.214;27.920;2023-06-24T17:42:25;13.05;;;7.93;;
34242;SDS011;20504;43.214;27.920;2023-06-24T17:48:05;11.90;;;8.23;;
34242;SDS011;20504;43.214;27.920;2023-06-24T17:50:31;12.15;;;8.30;;
34242;SDS011;20504;43.214;27.920;2023-06-24T17:53:00;9.82;;;8.07;;
34242;SDS011;20504;43.214;27.920;2023-06-24T17:55:27;9.57;;;8.35;;
34242;SDS011;20504;43.214;27.920;2023-06-24T17:58:01;13.52;;;8.90;;
34242;SDS011;20504;43.214;27.920;2023-06-24T18:00:37;11.18;;;9.13;;
34242;SDS011;20504;43.214;27.920;2023-06-24T18:03:12;12.98;;;9.20;;
34242;SDS011;20504;43.214;27.920;2023-06-24T18:05:40;17.60;;;9.88;;
34242;SDS011;20504;43.214;27.920;2023-06-24T18:08:21;13.32;;;9.43;;
34242;SDS011;20504;43.214;27.920;2023-06-24T18:10:50;12.73;;;8.73;;
34242;SDS011;20504;43.214;27.920;2023-06-24T18:13:19;13.88;;;9.55;;
34242;SDS011;20504;43.214;27.920;2023-06-24T18:15:54;11.35;;;8.38;;
34242;SDS011;20504;43.214;27.920;2023-06-24T18:18:20;14.82;;;9.90;;
34242;SDS011;20504;43.214;27.920;2023-06-24T18:20:49;13.25;;;9.63;;
34242;SDS011;20504;43.214;27.920;2023-06-24T18:23:16;11.35;;;10.10;;
34242;SDS011;20504;43.214;27.920;2023-06-24T18:25:42;17.65;;;11.68;;
34242;SDS011;20504;43.214;27.920;2023-06-24T18:28:13;15.13;;;10.95;;
34242;SDS011;20504;43.214;27.920;2023-06-24T18:30:40;16.45;;;11.07;;
34242;SDS011;20504;43.214;27.920;2023-06-24T18:33:06;12.37;;;10.07;;
34242;SDS011;20504;43.214;27.920;2023-06-24T18:35:47;14.90;;;10.10;;
34242;SDS011;20504;43.214;27.920;2023-06-24T18:38:19;12.63;;;9.70;;
34242;SDS011;20504;43.214;27.920;2023-06-24T18:40:47;16.20;;;10.35;;
34242;SDS011;20504;43.214;27.920;2023-06-24T18:43:15;11.77;;;10.55;;
34242;SDS011;20504;43.214;27.920;2023-06-24T18:45:45;13.68;;;9.55;;
34242;SDS011;20504;43.214;27.920;2023-06-24T18:48:15;14.07;;;9.25;;
34242;SDS011;20504;43.214;27.920;2023-06-24T18:50:51;13.30;;;9.77;;
34242;SDS011;20504;43.214;27.920;2023-06-24T18:53:35;16.80;;;9.35;;
34242;SDS011;20504;43.214;27.920;2023-06-24T18:56:02;13.02;;;9.70;;
34242;SDS011;20504;43.214;27.920;2023-06-24T18:58:32;16.27;;;9.15;;
34242;SDS011;20504;43.214;27.920;2023-06-24T19:01:02;13.02;;;9.10;;
34242;SDS011;20504;43.214;27.920;2023-06-24T19:03:36;16.52;;;9.10;;
34242;SDS011;20504;43.214;27.920;2023-06-24T19:06:15;15.25;;;9.95;;
34242;SDS011;20504;43.214;27.920;2023-06-24T19:08:46;10.95;;;9.77;;
34242;SDS011;20504;43.214;27.920;2023-06-24T19:11:18;10.02;;;8.98;;
34242;SDS011;20504;43.214;27.920;2023-06-24T19:13:49;12.00;;;10.05;;
34242;SDS011;20504;43.214;27.920;2023-06-24T19:16:18;10.35;;;9.20;;
34242;SDS011;20504;43.214;27.920;2023-06-24T19:18:45;14.35;;;9.98;;
34242;SDS011;20504;43.214;27.920;2023-06-24T19:21:14;15.05;;;10.20;;
34242;SDS011;20504;43.214;27.920;2023-06-24T19:23:52;14.35;;;9.68;;
34242;SDS011;20504;43.214;27.920;2023-06-24T19:26:41;16.30;;;10.15;;
34242;SDS011;20504;43.214;27.920;2023-06-24T19:29:07;14.95;;;9.65;;
34242;SDS011;20504;43.214;27.920;2023-06-24T19:31:49;14.75;;;9.68;;
34242;SDS011;20504;43.214;27.920;2023-06-24T19:34:58;15.10;;;9.68;;
34242;SDS011;20504;43.214;27.920;2023-06-24T19:40:36;11.35;;;9.32;;
34242;SDS011;20504;43.214;27.920;2023-06-24T19:43:07;12.80;;;9.55;;
34242;SDS011;20504;43.214;27.920;2023-06-24T19:45:35;17.30;;;10.02;;
34242;SDS011;20504;43.214;27.920;2023-06-24T19:48:03;11.23;;;9.65;;
34242;SDS011;20504;43.214;27.920;2023-06-24T19:50:29;12.75;;;9.82;;
34242;SDS011;20504;43.214;27.920;2023-06-24T19:53:29;15.35;;;9.50;;
34242;SDS011;20504;43.214;27.920;2023-06-24T19:56:00;13.82;;;10.27;;
34242;SDS011;20504;43.214;27.920;2023-06-24T19:58:28;13.23;;;10.43;;
34242;SDS011;20504;43.214;27.920;2023-06-24T20:00:57;18.02;;;11.10;;
34242;SDS011;20504;43.214;27.920;2023-06-24T20:03:23;13.80;;;10.68;;
34242;SDS011;20504;43.214;27.920;2023-06-24T20:05:53;17.08;;;10.35;;
34242;SDS011;20504;43.214;27.920;2023-06-24T20:08:27;13.32;;;9.75;;
34242;SDS011;20504;43.214;27.920;2023-06-24T20:13:21;15.13;;;10.57;;
34242;SDS011;20504;43.214;27.920;2023-06-24T20:15:53;17.90;;;10.50;;
34242;SDS011;20504;43.214;27.920;2023-06-24T20:22:05;15.88;;;10.80;;
34242;SDS011;20504;43.214;27.920;2023-06-24T20:27:29;12.93;;;10.25;;
34242;SDS011;20504;43.214;27.920;2023-06-24T20:33:23;14.35;;;12.02;;
34242;SDS011;20504;43.214;27.920;2023-06-24T20:36:44;20.23;;;11.45;;
34242;SDS011;20504;43.214;27.920;2023-06-24T20:47:02;19.48;;;12.85;;
34242;SDS011;20504;43.214;27.920;2023-06-24T20:57:47;19.15;;;12.80;;
34242;SDS011;20504;43.214;27.920;2023-06-24T21:00:48;20.98;;;13.73;;
34242;SDS011;20504;43.214;27.920;2023-06-24T21:06:29;19.15;;;13.35;;
34242;SDS011;20504;43.214;27.920;2023-06-24T21:10:35;27.65;;;13.10;;
34242;SDS011;20504;43.214;27.920;2023-06-24T21:16:00;24.05;;;13.25;;
34242;SDS011;20504;43.214;27.920;2023-06-24T21:18:41;18.52;;;13.35;;
34242;SDS011;20504;43.214;27.920;2023-06-24T21:24:18;20.13;;;13.18;;
34242;SDS011;20504;43.214;27.920;2023-06-24T21:30:12;23.17;;;13.57;;
34242;SDS011;20504;43.214;27.920;2023-06-24T21:41:19;25.98;;;14.10;;
34242;SDS011;20504;43.214;27.920;2023-06-24T21:44:38;22.92;;;13.38;;
34242;SDS011;20504;43.214;27.920;2023-06-24T21:47:25;19.90;;;12.90;;
34242;SDS011;20504;43.214;27.920;2023-06-24T21:55:03;20.33;;;13.30;;
34242;SDS011;20504;43.214;27.920;2023-06-24T22:22:41;21.60;;;14.52;;
34242;SDS011;20504;43.214;27.920;2023-06-24T22:25:51;21.25;;;14.38;;
34242;SDS011;20504;43.214;27.920;2023-06-24T22:28:43;21.95;;;13.65;;
34242;SDS011;20504;43.214;27.920;2023-06-24T22:36:55;18.25;;;13.00;;
34242;SDS011;20504;43.214;27.920;2023-06-24T22:39:46;24.60;;;13.57;;
34242;SDS011;20504;43.214;27.920;2023-06-24T22:42:35;19.60;;;12.65;;
34242;SDS011;20504;43.214;27.920;2023-06-24T22:45:09;20.33;;;15.13;;
34242;SDS011;20504;43.214;27.920;2023-06-24T22:47:36;18.48;;;13.63;;
34242;SDS011;20504;43.214;27.920;2023-06-24T22:50:06;21.42;;;13.73;;
34242;SDS011;20504;43.214;27.920;2023-06-24T22:52:39;17.25;;;12.88;;
34242;SDS011;20504;43.214;27.920;2023-06-24T22:55:16;22.17;;;13.98;;
34242;SDS011;20504;43.214;27.920;2023-06-24T22:57:48;20.88;;;13.88;;
34242;SDS011;20504;43.214;27.920;2023-06-24T23:00:16;17.73;;;13.00;;
34242;SDS011;20504;43.214;27.920;2023-06-24T23:03:07;25.48;;;15.23;;
34242;SDS011;20504;43.214;27.920;2023-06-24T23:05:42;26.45;;;14.90;;
34242;SDS011;20504;43.214;27.920;2023-06-24T23:08:17;22.70;;;14.63;;
34242;SDS011;20504;43.214;27.920;2023-06-24T23:10:59;23.50;;;15.52;;
34242;SDS011;20504;43.214;27.920;2023-06-24T23:13:39;28.77;;;15.05;;
34242;SDS011;20504;43.214;27.920;2023-06-24T23:16:11;42.33;;;15.15;;
34242;SDS011;20504;43.214;27.920;2023-06-24T23:19:18;22.60;;;14.55;;
34242;SDS011;20504;43.214;27.920;2023-06-24T23:22:08;19.13;;;13.40;;
34242;SDS011;20504;43.214;27.920;2023-06-24T23:24:39;27.42;;;13.52;;
34242;SDS011;20504;43.214;27.920;2023-06-24T23:27:27;16.33;;;12.00;;
34242;SDS011;20504;43.214;27.920;2023-06-24T23:30:09;23.70;;;12.30;;
34242;SDS011;20504;43.214;27.920;2023-06-24T23:32:50;18.85;;;13.30;;
34242;SDS011;20504;43.214;27.920;2023-06-24T23:36:03;24.60;;;13.10;;
34242;SDS011;20504;43.214;27.920;2023-06-24T23:38:33;20.42;;;13.07;;
34242;SDS011;20504;43.214;27.920;2023-06-24T23:41:05;19.95;;;12.68;;
34242;SDS011;20504;43.214;27.920;2023-06-24T23:43:36;18.20;;;12.75;;
34242;SDS011;20504;43.214;27.920;2023-06-24T23:46:01;25.80;;;14.00;;
34242;SDS011;20504;43.214;27.920;2023-06-24T23:48:34;18.00;;;12.23;;
34242;SDS011;20504;43.214;27.920;2023-06-24T23:51:15;18.45;;;12.00;;
34242;SDS011;20504;43.214;27.920;2023-06-24T23:53:50;17.95;;;11.70;;
34242;SDS011;20504;43.214;27.920;2023-06-24T23:56:18;15.25;;;12.13;;
34242;SDS011;20504;43.214;27.920;2023-06-24T23:58:49;17.50;;;12.80;;
